OYHST EFTP-EFTU
Flight info
| Callsign | OYHST |
|---|---|
| Flight time | 0h 21m |
| Altitude | 16000 |
| Route | NEBAB DCT UVOPA |
| Aircraft | TBM8/L-SDFGRWY/S |
Departure
| Time | 2026-04-19 19:20 |
|---|---|
| Airport | Tampere-Pirkkala Airport (EFTP) |
Arrival
| Time | 2026-04-19 19:42 |
|---|---|
| Airport | Turku Airport (EFTU) |
| Time | Latitude | Longitude | Altitude | Speed | Heading |
|---|---|---|---|---|---|
| 2026-04-19 19:01 | 61.42051 | 23.62134 | 374 ft | 0 kts | 154° |
| 2026-04-19 19:15 | 61.42038 | 23.62139 | 374 ft | 5 kts | 198° |
| 2026-04-19 19:15 | 61.42006 | 23.61992 | 375 ft | 14 kts | 251° |
| 2026-04-19 19:15 | 61.41940 | 23.61924 | 375 ft | 10 kts | 245° |
| 2026-04-19 19:16 | 61.41906 | 23.61771 | 376 ft | 13 kts | 244° |
| 2026-04-19 19:16 | 61.41861 | 23.61588 | 377 ft | 15 kts | 241° |
| 2026-04-19 19:16 | 61.41805 | 23.61398 | 378 ft | 16 kts | 236° |
| 2026-04-19 19:16 | 61.41770 | 23.61199 | 379 ft | 15 kts | 245° |
| 2026-04-19 19:17 | 61.41710 | 23.60952 | 380 ft | 24 kts | 242° |
| 2026-04-19 19:17 | 61.41631 | 23.60607 | 382 ft | 28 kts | 243° |
| 2026-04-19 19:17 | 61.41555 | 23.60253 | 383 ft | 24 kts | 243° |
| 2026-04-19 19:17 | 61.41477 | 23.59936 | 385 ft | 25 kts | 251° |
| 2026-04-19 19:18 | 61.41407 | 23.59610 | 387 ft | 25 kts | 244° |
| 2026-04-19 19:18 | 61.41333 | 23.59289 | 388 ft | 24 kts | 243° |
| 2026-04-19 19:18 | 61.41258 | 23.58970 | 390 ft | 27 kts | 244° |
| 2026-04-19 19:18 | 61.41177 | 23.58592 | 392 ft | 29 kts | 244° |
| 2026-04-19 19:19 | 61.41125 | 23.58357 | 393 ft | 15 kts | 245° |
| 2026-04-19 19:19 | 61.41074 | 23.58151 | 393 ft | 20 kts | 242° |
| 2026-04-19 19:19 | 61.40985 | 23.58090 | 395 ft | 16 kts | 147° |
| 2026-04-19 19:20 | 61.41034 | 23.58745 | 391 ft | 57 kts | 65° |
| 2026-04-19 19:20 | 61.41278 | 23.59882 | 547 ft | 105 kts | 65° |
| 2026-04-19 19:20 | 61.41633 | 23.61433 | 865 ft | 132 kts | 65° |
| 2026-04-19 19:20 | 61.42057 | 23.63292 | 1379 ft | 146 kts | 71° |
| 2026-04-19 19:21 | 61.42027 | 23.65310 | 2254 ft | 142 kts | 106° |
| 2026-04-19 19:21 | 61.41443 | 23.67037 | 2950 ft | 151 kts | 129° |
| 2026-04-19 19:21 | 61.40721 | 23.68663 | 3525 ft | 155 kts | 128° |
| 2026-04-19 19:21 | 61.39975 | 23.70363 | 3938 ft | 168 kts | 129° |
| 2026-04-19 19:22 | 61.39141 | 23.72241 | 4280 ft | 179 kts | 129° |
| 2026-04-19 19:22 | 61.38208 | 23.73950 | 4831 ft | 182 kts | 145° |
| 2026-04-19 19:22 | 61.37003 | 23.74863 | 5330 ft | 189 kts | 167° |
| 2026-04-19 19:22 | 61.35677 | 23.74780 | 5812 ft | 195 kts | 190° |
| 2026-04-19 19:23 | 61.34432 | 23.73610 | 6294 ft | 200 kts | 215° |
| 2026-04-19 19:23 | 61.33491 | 23.71485 | 6769 ft | 201 kts | 240° |
| 2026-04-19 19:23 | 61.32831 | 23.68895 | 7191 ft | 203 kts | 243° |
| 2026-04-19 19:23 | 61.32159 | 23.66283 | 7638 ft | 205 kts | 243° |
| 2026-04-19 19:24 | 61.31483 | 23.63661 | 8083 ft | 207 kts | 240° |
| 2026-04-19 19:24 | 61.30575 | 23.61382 | 8514 ft | 208 kts | 224° |
| 2026-04-19 19:24 | 61.29529 | 23.59272 | 9108 ft | 210 kts | 225° |
| 2026-04-19 19:24 | 61.28526 | 23.57053 | 9726 ft | 212 kts | 227° |
| 2026-04-19 19:25 | 61.27530 | 23.54761 | 10311 ft | 214 kts | 227° |
| 2026-04-19 19:25 | 61.26517 | 23.52448 | 10870 ft | 217 kts | 227° |
| 2026-04-19 19:25 | 61.25492 | 23.50127 | 11420 ft | 219 kts | 226° |
| 2026-04-19 19:25 | 61.24455 | 23.47779 | 11971 ft | 222 kts | 226° |
| 2026-04-19 19:26 | 61.23406 | 23.45405 | 12527 ft | 224 kts | 226° |
| 2026-04-19 19:26 | 61.22349 | 23.43000 | 13080 ft | 227 kts | 226° |
| 2026-04-19 19:26 | 61.21281 | 23.40571 | 13651 ft | 229 kts | 226° |
| 2026-04-19 19:26 | 61.20196 | 23.38126 | 14207 ft | 231 kts | 225° |
| 2026-04-19 19:27 | 61.19098 | 23.35664 | 14700 ft | 234 kts | 224° |
| 2026-04-19 19:27 | 61.17776 | 23.33765 | 15187 ft | 231 kts | 203° |
| 2026-04-19 19:27 | 61.16329 | 23.32367 | 15688 ft | 233 kts | 200° |
| 2026-04-19 19:27 | 61.14851 | 23.30925 | 16202 ft | 236 kts | 203° |
| 2026-04-19 19:28 | 61.13352 | 23.29256 | 16375 ft | 255 kts | 206° |
| 2026-04-19 19:28 | 61.11768 | 23.27398 | 16000 ft | 265 kts | 206° |
| 2026-04-19 19:28 | 61.10150 | 23.25540 | 15496 ft | 266 kts | 206° |
| 2026-04-19 19:28 | 61.08518 | 23.23719 | 14998 ft | 266 kts | 205° |
| 2026-04-19 19:29 | 61.06914 | 23.21926 | 14513 ft | 265 kts | 206° |
| 2026-04-19 19:29 | 61.05282 | 23.20089 | 13998 ft | 263 kts | 206° |
| 2026-04-19 19:29 | 61.03698 | 23.18307 | 13504 ft | 260 kts | 206° |
| 2026-04-19 19:29 | 61.02131 | 23.16554 | 13173 ft | 253 kts | 206° |
| 2026-04-19 19:30 | 61.00601 | 23.14844 | 12844 ft | 249 kts | 206° |
| 2026-04-19 19:30 | 60.99087 | 23.13152 | 12519 ft | 246 kts | 206° |
| 2026-04-19 19:30 | 60.97589 | 23.11476 | 12190 ft | 244 kts | 206° |
| 2026-04-19 19:30 | 60.96099 | 23.09812 | 11877 ft | 243 kts | 206° |
| 2026-04-19 19:31 | 60.94617 | 23.08159 | 11556 ft | 242 kts | 206° |
| 2026-04-19 19:31 | 60.93143 | 23.06516 | 11240 ft | 241 kts | 206° |
| 2026-04-19 19:31 | 60.91674 | 23.04881 | 10920 ft | 240 kts | 206° |
| 2026-04-19 19:31 | 60.90211 | 23.03256 | 10605 ft | 238 kts | 206° |
| 2026-04-19 19:32 | 60.88754 | 23.01637 | 10291 ft | 237 kts | 206° |
| 2026-04-19 19:32 | 60.87317 | 23.00044 | 10117 ft | 231 kts | 206° |
| 2026-04-19 19:32 | 60.85909 | 22.98488 | 9902 ft | 229 kts | 206° |
| 2026-04-19 19:32 | 60.84509 | 22.96937 | 9644 ft | 229 kts | 206° |
| 2026-04-19 19:33 | 60.83106 | 22.95382 | 9385 ft | 229 kts | 207° |
| 2026-04-19 19:33 | 60.81710 | 22.93838 | 8941 ft | 234 kts | 207° |
| 2026-04-19 19:33 | 60.80273 | 22.92247 | 8539 ft | 234 kts | 207° |
| 2026-04-19 19:33 | 60.78847 | 22.90676 | 8235 ft | 231 kts | 207° |
| 2026-04-19 19:34 | 60.77438 | 22.89129 | 7953 ft | 228 kts | 207° |
| 2026-04-19 19:34 | 60.76049 | 22.87601 | 7684 ft | 226 kts | 207° |
| 2026-04-19 19:34 | 60.74667 | 22.86081 | 7412 ft | 224 kts | 207° |
| 2026-04-19 19:34 | 60.73294 | 22.84572 | 7149 ft | 223 kts | 207° |
| 2026-04-19 19:35 | 60.71931 | 22.83077 | 6890 ft | 222 kts | 207° |
| 2026-04-19 19:35 | 60.70570 | 22.81583 | 6617 ft | 221 kts | 207° |
| 2026-04-19 19:35 | 60.69217 | 22.80102 | 6349 ft | 220 kts | 207° |
| 2026-04-19 19:35 | 60.67872 | 22.78631 | 6087 ft | 219 kts | 207° |
| 2026-04-19 19:36 | 60.66552 | 22.77187 | 5832 ft | 217 kts | 207° |
| 2026-04-19 19:36 | 60.65220 | 22.75734 | 5573 ft | 216 kts | 207° |
| 2026-04-19 19:36 | 60.63896 | 22.74290 | 5318 ft | 215 kts | 206° |
| 2026-04-19 19:36 | 60.62578 | 22.72853 | 5058 ft | 214 kts | 206° |
| 2026-04-19 19:37 | 60.61269 | 22.71428 | 4801 ft | 213 kts | 206° |
| 2026-04-19 19:37 | 60.59963 | 22.70007 | 4544 ft | 212 kts | 206° |
| 2026-04-19 19:37 | 60.58662 | 22.68594 | 4296 ft | 212 kts | 206° |
| 2026-04-19 19:37 | 60.57361 | 22.67180 | 4043 ft | 212 kts | 206° |
| 2026-04-19 19:38 | 60.56064 | 22.65774 | 3793 ft | 211 kts | 206° |
| 2026-04-19 19:38 | 60.54769 | 22.64360 | 3543 ft | 211 kts | 208° |
| 2026-04-19 19:38 | 60.53666 | 22.62407 | 3292 ft | 212 kts | 232° |
| 2026-04-19 19:38 | 60.52993 | 22.59778 | 3046 ft | 210 kts | 257° |
| 2026-04-19 19:39 | 60.52789 | 22.56847 | 2788 ft | 209 kts | 267° |
| 2026-04-19 19:39 | 60.52654 | 22.53912 | 2533 ft | 209 kts | 268° |
| 2026-04-19 19:39 | 60.52528 | 22.50982 | 2280 ft | 208 kts | 267° |
| 2026-04-19 19:39 | 60.52394 | 22.48126 | 2126 ft | 205 kts | 267° |
| 2026-04-19 19:40 | 60.52272 | 22.45225 | 1840 ft | 206 kts | 267° |
| 2026-04-19 19:40 | 60.52140 | 22.42329 | 1559 ft | 203 kts | 266° |
| 2026-04-19 19:40 | 60.52016 | 22.39738 | 1300 ft | 175 kts | 267° |
| 2026-04-19 19:40 | 60.51921 | 22.37581 | 1084 ft | 132 kts | 267° |
| 2026-04-19 19:41 | 60.51831 | 22.35859 | 897 ft | 115 kts | 265° |
| 2026-04-19 19:41 | 60.51760 | 22.34300 | 746 ft | 109 kts | 267° |
| 2026-04-19 19:41 | 60.51716 | 22.32781 | 582 ft | 108 kts | 267° |
| 2026-04-19 19:41 | 60.51634 | 22.31320 | 477 ft | 102 kts | 266° |
| 2026-04-19 19:42 | 60.51569 | 22.29888 | 321 ft | 98 kts | 266° |
| 2026-04-19 19:42 | 60.51513 | 22.28559 | 196 ft | 94 kts | 265° |
| 2026-04-19 19:42 | 60.51461 | 22.27437 | 144 ft | 44 kts | 264° |
| 2026-04-19 19:42 | 60.51417 | 22.27055 | 143 ft | 14 kts | 198° |
| 2026-04-19 19:43 | 60.51330 | 22.27091 | 143 ft | 7 kts | 104° |
| 2026-04-19 19:43 | 60.51329 | 22.27138 | 143 ft | 3 kts | 88° |
| 2026-04-19 19:43 | 60.51332 | 22.27192 | 143 ft | 4 kts | 81° |
| 2026-04-19 19:43 | 60.51337 | 22.27260 | 143 ft | 5 kts | 86° |
| 2026-04-19 19:44 | 60.51340 | 22.27407 | 144 ft | 15 kts | 86° |
| 2026-04-19 19:44 | 60.51306 | 22.27517 | 144 ft | 0 kts | 174° |